Accueil
METAR-TAF:

METAR-TAF

Aéroports :

Nain, Terre-Neuve-et-Labrador, Canada

latitude: 56-33N, longitude: 061-41W, altitude: 6 m

Observation

Le bulletin a été fait il y a 30 minutes, à 21:00 UTC
Vent 12 kt de est/sud-est
Température -1°C
Humidité 69%
Pression 1014 hPa
Visibilité: 24.1 km
Nuages fragmentés à une hauteur de 2200 ft

METAR: CYDP 242100Z 12012KT 15SM BKN022 M01/M06 A2993 RMK SC7 SLP137

Heure: 18:30 (21:30 UTC)

Prévision

Le bulletin a été fait il y a 1 heure et 52 minutes, à 19:38 UTC
Prévision valable du 24 à 20 UTC au 24 à 23 UTC
Vent 10 kt de est
Visibilité: 10 km
Nuages fragmentés à une hauteur de 2000 ft
Temporairement
du 24 à 20 UTC au 24 à 23 UTC
Quelques nuages à une hauteur de 2000 ft

TAF: CYDP 241938Z 2420/2423 10010KT P6SM BKN020 TEMPO 2420/2423 FEW020 RMK NXT FCST WILL BE ISSUED AT 250945Z

Observations et prévisions météorologiques de plus de 4000 aéroports (messages METAR et TAF).

Les stations disponibles sont représentées par des disques jaunes et rouges sur la carte.

Passer la souris dessus pour voir le nom de la station.

Cliquer dessus pour voir les observations et prévisions météorologiques.

Pour changer de carte: cliquez sur les boutons verts avec une croix noire pour zoomer, sur le bouton vert avec un tiret pour effectuer un zoom arrière, ou sur les flèches vertes pour les cartes adjacentes.


METAR-TAF: